Time;durP1;ratioP1;P1;durP2;ratioP2;P2;SDS_P1;SDS_P2;PMS_P1;PMS_P2;Temp;Humidity;BMP_temperature;BMP_pressure;BME280_temperature;BME280_humidity;BME280_pressure;Samples;Min_cycle;Max_cycle;Signal;HPM_P1;HPM_P2
2021/11/10 00:01:49;;;;;;;2.33;1.30;;;1.10;84.70;;;;;;4941349;28;20027;-91
2021/11/10 00:04:15;;;;;;;1.65;1.25;;;1.10;84.80;;;;;;4960914;28;20042;-91
2021/11/10 00:06:41;;;;;;;1.35;1.13;;;1.00;84.30;;;;;;4960708;28;20031;-92
2021/11/10 00:09:07;;;;;;;1.38;1.08;;;1.10;84.50;;;;;;4961040;28;20023;-91
2021/11/10 00:11:33;;;;;;;1.98;1.70;;;1.00;85.10;;;;;;4960944;28;20058;-91
2021/11/10 00:13:59;;;;;;;1.38;1.27;;;1.00;85.80;;;;;;4960746;28;20031;-92
2021/11/10 00:16:25;;;;;;;0.65;0.60;;;1.00;85.80;;;;;;4960401;28;20042;-92
2021/11/10 00:18:51;;;;;;;1.33;0.80;;;1.00;85.90;;;;;;4960209;28;20066;-92
2021/11/10 00:21:19;;;;;;;1.45;1.20;;;0.90;86.50;;;;;;4960574;28;20026;-93
2021/11/10 00:23:45;;;;;;;1.17;0.77;;;0.90;88.00;;;;;;4960129;28;20529;-91
2021/11/10 00:26:10;;;;;;;1.33;1.20;;;0.90;87.10;;;;;;4960196;28;20027;-91
2021/11/10 00:28:36;;;;;;;1.20;1.10;;;0.90;88.10;;;;;;4977490;28;20033;-92
2021/11/10 00:31:02;;;;;;;2.88;2.20;;;0.90;88.40;;;;;;4977574;28;20058;-91
2021/11/10 00:33:27;;;;;;;1.85;1.60;;;0.90;88.00;;;;;;4960147;28;20478;-91
2021/11/10 00:35:53;;;;;;;1.33;1.15;;;0.90;88.30;;;;;;4960607;28;20107;-92
2021/11/10 00:38:19;;;;;;;2.33;1.35;;;0.80;88.50;;;;;;4960785;28;20026;-91
2021/11/10 00:40:44;;;;;;;1.40;1.23;;;0.80;88.00;;;;;;4959867;28;20137;-92
2021/11/10 00:43:10;;;;;;;1.98;1.25;;;0.80;88.50;;;;;;4960600;28;20454;-92
2021/11/10 00:45:36;;;;;;;1.38;1.25;;;0.80;89.10;;;;;;4960314;28;20030;-91
2021/11/10 00:48:03;;;;;;;2.63;1.20;;;0.80;89.20;;;;;;4960609;28;20037;-91
2021/11/10 00:50:29;;;;;;;2.40;1.60;;;0.80;89.80;;;;;;4959821;28;20055;-92
2021/11/10 00:52:54;;;;;;;1.70;1.20;;;0.80;89.30;;;;;;4959836;28;20062;-92
2021/11/10 00:55:20;;;;;;;1.48;1.15;;;0.70;89.80;;;;;;4960410;28;20031;-92
2021/11/10 00:57:46;;;;;;;0.90;0.90;;;0.70;89.80;;;;;;4959515;28;20031;-92
2021/11/10 01:00:12;;;;;;;2.97;1.73;;;0.70;90.10;;;;;;4960483;28;20125;-92
2021/11/10 01:02:38;;;;;;;1.52;1.15;;;0.70;90.50;;;;;;4959405;28;20058;-92
2021/11/10 01:05:04;;;;;;;4.25;1.98;;;0.70;90.40;;;;;;4959729;28;20061;-92
2021/11/10 01:07:30;;;;;;;2.70;1.73;;;0.70;90.60;;;;;;4960126;28;20153;-92
2021/11/10 01:10:01;;;;;;;2.70;1.60;;;0.60;91.00;;;;;;4960021;28;20031;-92
2021/11/10 01:12:28;;;;;;;2.85;1.42;;;0.60;90.90;;;;;;4959315;28;20031;-92
2021/11/10 01:14:54;;;;;;;3.05;1.98;;;0.60;91.10;;;;;;4959262;28;20485;-91
2021/11/10 01:17:20;;;;;;;1.55;1.40;;;0.60;91.10;;;;;;4959613;28;20122;-92
2021/11/10 01:19:46;;;;;;;2.05;1.85;;;0.60;91.00;;;;;;4959303;28;20058;-92
2021/11/10 01:22:11;;;;;;;3.13;1.73;;;0.60;91.00;;;;;;4959070;28;20454;-92
2021/11/10 01:24:37;;;;;;;2.45;1.20;;;0.50;91.50;;;;;;4976063;28;20109;-91
2021/11/10 01:27:03;;;;;;;1.35;1.25;;;0.50;91.60;;;;;;4976237;28;20023;-92
2021/11/10 01:29:29;;;;;;;2.05;1.73;;;0.50;91.60;;;;;;4976243;28;20454;-92
2021/11/10 01:31:55;;;;;;;1.63;1.35;;;0.50;91.80;;;;;;4959091;28;20033;-92
2021/11/10 01:34:20;;;;;;;2.83;1.23;;;0.50;91.70;;;;;;4976484;28;20489;-92
2021/11/10 01:36:47;;;;;;;4.60;1.73;;;0.50;91.70;;;;;;4958912;28;20114;-92
2021/11/10 01:39:13;;;;;;;2.42;1.65;;;0.50;92.20;;;;;;4959023;28;20030;-91
2021/11/10 01:41:40;;;;;;;2.17;1.60;;;0.40;92.90;;;;;;4958801;28;20034;-92
2021/11/10 01:44:17;;;;;;;1.45;1.33;;;0.30;92.80;;;;;;4959624;28;20478;-91
2021/11/10 01:46:43;;;;;;;2.17;1.58;;;0.40;93.10;;;;;;4959650;28;20022;-92
2021/11/10 01:49:10;;;;;;;3.60;1.92;;;0.30;93.00;;;;;;4959015;28;20077;-92
2021/11/10 01:51:42;;;;;;;1.77;1.50;;;0.30;93.10;;;;;;4958882;28;20070;-92
2021/11/10 01:54:08;;;;;;;3.67;1.42;;;0.30;92.80;;;;;;4958525;28;20479;-92
2021/11/10 01:56:33;;;;;;;1.88;1.10;;;0.30;92.80;;;;;;4959066;28;20027;-92
2021/11/10 01:58:59;;;;;;;1.42;1.02;;;0.30;93.10;;;;;;4958699;28;20050;-92
2021/11/10 02:01:24;;;;;;;6.93;2.53;;;0.30;93.70;;;;;;4958704;28;20026;-91
2021/11/10 02:03:51;;;;;;;3.47;1.80;;;0.30;93.40;;;;;;4958835;28;20077;-92
2021/11/10 02:06:18;;;;;;;3.28;1.40;;;0.30;93.40;;;;;;4958772;28;20073;-92
2021/11/10 02:08:44;;;;;;;2.50;1.42;;;0.20;93.90;;;;;;4959411;28;20458;-92
2021/11/10 02:11:11;;;;;;;5.18;2.25;;;0.20;93.80;;;;;;4959227;28;20023;-92
2021/11/10 02:13:38;;;;;;;2.63;1.77;;;0.20;93.90;;;;;;4978406;28;20066;-92
2021/11/10 02:16:04;;;;;;;1.90;1.40;;;0.20;94.20;;;;;;4977922;28;20034;-91
2021/11/10 02:18:30;;;;;;;1.95;1.45;;;0.20;93.90;;;;;;4959404;28;20117;-91
2021/11/10 02:20:56;;;;;;;2.55;1.42;;;0.20;94.00;;;;;;4958463;28;20122;-92
2021/11/10 02:23:22;;;;;;;3.45;2.05;;;0.20;93.80;;;;;;4958439;28;20058;-91
2021/11/10 02:25:49;;;;;;;3.17;2.53;;;0.10;94.00;;;;;;4958554;28;20027;-91
2021/11/10 02:28:15;;;;;;;5.57;1.58;;;0.10;94.30;;;;;;4958220;28;20030;-91
2021/11/10 02:30:42;;;;;;;1.95;1.27;;;0.10;94.30;;;;;;4975625;28;20031;-91
2021/11/10 02:33:08;;;;;;;2.92;1.58;;;0.20;94.20;;;;;;4975583;28;20478;-91
2021/11/10 02:35:34;;;;;;;2.78;1.98;;;0.10;94.50;;;;;;4975453;28;20064;-92
2021/11/10 02:38:06;;;;;;;6.05;2.13;;;0.10;94.30;;;;;;4959031;28;20118;-92
2021/11/10 02:40:33;;;;;;;4.10;1.90;;;0.10;95.20;;;;;;4958894;28;20454;-92
2021/11/10 02:42:59;;;;;;;2.65;1.88;;;0.10;94.80;;;;;;4958445;28;20045;-91
2021/11/10 02:45:26;;;;;;;2.97;1.98;;;0.10;94.80;;;;;;4958641;28;20054;-91
2021/11/10 02:47:53;;;;;;;2.08;1.77;;;0.10;94.50;;;;;;4960003;28;20122;-92
2021/11/10 02:50:19;;;;;;;2.83;1.98;;;0.00;94.90;;;;;;4962137;28;20121;-92
2021/11/10 02:52:45;;;;;;;2.45;1.60;;;0.10;95.00;;;;;;4979180;28;20027;-92
2021/11/10 02:55:11;;;;;;;3.30;1.70;;;0.00;95.00;;;;;;4962095;28;20035;-91
2021/11/10 02:57:37;;;;;;;2.15;1.70;;;0.00;95.10;;;;;;4978945;28;20118;-91
2021/11/10 03:00:08;;;;;;;2.00;1.80;;;0.00;95.00;;;;;;4979044;28;20447;-91
2021/11/10 03:02:33;;;;;;;2.30;1.50;;;0.00;95.10;;;;;;4961823;28;20058;-92
2021/11/10 03:04:59;;;;;;;3.80;2.30;;;0.00;95.20;;;;;;4961727;28;20061;-91
2021/11/10 03:07:26;;;;;;;4.40;1.58;;;0.00;95.50;;;;;;4961811;28;20030;-92
2021/11/10 03:09:51;;;;;;;4.20;2.20;;;0.00;95.50;;;;;;4961682;28;20031;-91
2021/11/10 03:12:19;;;;;;;3.63;1.80;;;-0.10;95.80;;;;;;4962213;28;20026;-92
2021/11/10 03:14:46;;;;;;;2.92;2.13;;;-0.10;95.60;;;;;;4961500;28;20031;-92
2021/11/10 03:17:14;;;;;;;3.78;2.10;;;-0.10;95.70;;;;;;4961631;28;20118;-91
2021/11/10 03:19:41;;;;;;;2.25;1.48;;;-0.10;95.70;;;;;;4961468;28;20045;-91
2021/11/10 03:22:09;;;;;;;4.95;2.15;;;-0.10;95.50;;;;;;4961592;28;20126;-91
2021/11/10 03:24:34;;;;;;;2.92;1.40;;;-0.10;96.00;;;;;;4961069;28;20114;-92
2021/11/10 03:27:00;;;;;;;3.33;1.90;;;-0.10;95.70;;;;;;4961404;28;20122;-92
2021/11/10 03:29:26;;;;;;;2.50;1.95;;;-0.10;95.80;;;;;;4961277;28;20381;-91
2021/11/10 03:31:52;;;;;;;6.30;2.03;;;-0.10;95.60;;;;;;4960971;28;20033;-92
2021/11/10 03:34:20;;;;;;;2.35;1.40;;;-0.10;95.80;;;;;;4961777;28;20426;-91
2021/11/10 03:36:47;;;;;;;2.28;1.52;;;-0.10;96.10;;;;;;4961134;28;20432;-93
2021/11/10 03:39:15;;;;;;;2.17;1.95;;;0.00;95.80;;;;;;4978406;28;20034;-91
2021/11/10 03:41:42;;;;;;;5.85;2.28;;;0.00;96.10;;;;;;4961154;28;20038;-92
2021/11/10 03:44:08;;;;;;;3.33;2.25;;;-0.10;95.80;;;;;;4960835;28;20023;-92
2021/11/10 03:46:37;;;;;;;2.80;1.73;;;-0.10;96.00;;;;;;4961525;28;20466;-91
2021/11/10 03:49:03;;;;;;;1.38;1.27;;;-0.10;96.30;;;;;;4961681;28;20078;-92
2021/11/10 03:51:29;;;;;;;2.50;1.80;;;-0.10;95.90;;;;;;4961283;28;20026;-91
2021/11/10 03:53:55;;;;;;;1.77;1.63;;;-0.10;95.90;;;;;;4961312;28;20445;-91
2021/11/10 03:56:22;;;;;;;3.15;2.13;;;-0.10;96.00;;;;;;4961224;28;20049;-91
2021/11/10 03:58:47;;;;;;;1.67;1.58;;;-0.10;96.30;;;;;;4961532;28;20042;-92
2021/11/10 04:01:13;;;;;;;2.13;1.85;;;-0.10;96.10;;;;;;4961027;28;20184;-92
2021/11/10 04:03:40;;;;;;;2.17;1.27;;;-0.10;95.80;;;;;;4960882;28;20030;-91
2021/11/10 04:06:06;;;;;;;2.47;2.17;;;-0.10;95.90;;;;;;4960630;28;20038;-91
2021/11/10 04:08:32;;;;;;;2.55;1.52;;;-0.10;96.00;;;;;;4960631;28;20035;-91
2021/11/10 04:11:00;;;;;;;3.50;1.83;;;-0.10;96.00;;;;;;4960523;28;20033;-91
2021/11/10 04:13:27;;;;;;;2.83;1.75;;;-0.10;96.20;;;;;;4960269;28;20027;-92
2021/11/10 04:15:54;;;;;;;3.17;1.75;;;-0.10;96.00;;;;;;4977258;28;20509;-92
2021/11/10 04:18:19;;;;;;;2.15;1.95;;;-0.10;96.30;;;;;;4960436;28;20037;-91
2021/11/10 04:20:45;;;;;;;4.10;2.45;;;-0.10;96.00;;;;;;4960233;28;20031;-91
2021/11/10 04:23:11;;;;;;;6.10;2.05;;;-0.10;96.00;;;;;;4960151;28;20497;-92
2021/11/10 04:25:37;;;;;;;2.88;2.08;;;-0.10;95.90;;;;;;4977708;28;20030;-91
2021/11/10 04:28:04;;;;;;;2.35;1.70;;;-0.10;95.90;;;;;;4960353;28;20054;-91
2021/11/10 04:30:30;;;;;;;4.05;2.20;;;-0.10;96.00;;;;;;4960320;28;20039;-91
2021/11/10 04:32:56;;;;;;;3.25;1.80;;;-0.10;95.80;;;;;;4977780;28;20114;-92
2021/11/10 04:35:22;;;;;;;2.78;1.75;;;-0.10;96.10;;;;;;4977429;28;20452;-91
2021/11/10 04:37:47;;;;;;;5.30;2.03;;;-0.20;96.20;;;;;;4960614;28;20030;-91
2021/11/10 04:40:13;;;;;;;1.77;1.55;;;-0.20;96.30;;;;;;4959967;28;20031;-91
2021/11/10 04:42:40;;;;;;;3.45;1.85;;;-0.10;96.30;;;;;;4960660;28;20027;-90
2021/11/10 04:45:10;;;;;;;3.75;2.15;;;-0.20;96.30;;;;;;4959800;28;20118;-91
2021/11/10 04:47:36;;;;;;;2.33;1.50;;;-0.20;96.20;;;;;;4960461;28;20029;-91
2021/11/10 04:50:06;;;;;;;2.97;1.88;;;-0.20;96.40;;;;;;4977047;28;20070;-93
2021/11/10 04:52:35;;;;;;;4.07;3.15;;;-0.20;96.30;;;;;;4977010;28;20023;-91
2021/11/10 04:55:01;;;;;;;2.47;1.98;;;-0.20;96.20;;;;;;4960352;28;20401;-92
2021/11/10 04:57:26;;;;;;;3.08;1.90;;;-0.20;96.20;;;;;;4959668;28;20134;-91
2021/11/10 04:59:52;;;;;;;2.38;1.60;;;-0.20;96.20;;;;;;4959342;28;20110;-92
2021/11/10 05:02:24;;;;;;;3.83;2.30;;;-0.20;96.00;;;;;;4960099;28;20022;-92
2021/11/10 05:04:51;;;;;;;3.65;2.40;;;-0.20;96.00;;;;;;4960404;28;20339;-91
2021/11/10 05:07:18;;;;;;;3.10;1.95;;;-0.10;96.20;;;;;;4959270;28;20058;-91
2021/11/10 05:09:44;;;;;;;2.58;2.38;;;-0.10;96.20;;;;;;4959285;28;20038;-91
2021/11/10 05:12:10;;;;;;;1.85;1.27;;;-0.10;96.50;;;;;;4958537;28;20031;-91
2021/11/10 05:14:35;;;;;;;3.03;2.72;;;-0.10;96.40;;;;;;4960007;28;20043;-91
2021/11/10 05:17:01;;;;;;;2.05;1.83;;;0.00;96.40;;;;;;4959369;28;20034;-92
2021/11/10 05:19:28;;;;;;;2.78;2.38;;;0.10;96.30;;;;;;4959328;28;20023;-92
2021/11/10 05:21:54;;;;;;;3.08;1.95;;;0.20;96.10;;;;;;4960375;28;20031;-91
2021/11/10 05:24:22;;;;;;;6.50;1.90;;;0.20;96.00;;;;;;4959982;28;20038;-91
2021/11/10 05:26:48;;;;;;;3.45;2.28;;;0.20;95.90;;;;;;4976533;28;20029;-92
2021/11/10 05:29:14;;;;;;;3.83;1.92;;;0.30;95.90;;;;;;4976461;28;20056;-91
2021/11/10 05:31:40;;;;;;;2.60;1.95;;;0.30;95.90;;;;;;4977839;28;20026;-91
2021/11/10 05:34:05;;;;;;;2.40;1.58;;;0.30;95.90;;;;;;4958874;28;20505;-92
2021/11/10 05:36:31;;;;;;;2.72;2.42;;;0.40;95.80;;;;;;4959784;28;20039;-92
2021/11/10 05:38:57;;;;;;;3.42;2.55;;;0.40;95.70;;;;;;4958949;28;20062;-91
2021/11/10 05:41:23;;;;;;;2.35;1.95;;;0.50;95.70;;;;;;4959690;28;20054;-91
2021/11/10 05:43:49;;;;;;;3.55;1.88;;;0.60;95.60;;;;;;4959449;28;20494;-92
2021/11/10 05:46:15;;;;;;;2.95;2.28;;;0.60;95.70;;;;;;4976682;28;20081;-92
2021/11/10 05:48:41;;;;;;;3.90;2.00;;;0.70;95.30;;;;;;4959985;28;20356;-92
2021/11/10 05:51:06;;;;;;;3.60;2.60;;;0.80;95.30;;;;;;4958811;28;20026;-93
2021/11/10 05:53:33;;;;;;;2.75;1.95;;;0.80;94.90;;;;;;4958970;28;20125;-91
2021/11/10 05:56:00;;;;;;;2.75;2.25;;;0.70;94.70;;;;;;4959170;28;20486;-91
2021/11/10 05:58:28;;;;;;;3.13;2.53;;;0.80;94.90;;;;;;4958686;28;20488;-92
2021/11/10 06:00:57;;;;;;;9.85;3.55;;;0.80;94.90;;;;;;4958841;28;20031;-92
2021/11/10 06:03:23;;;;;;;3.58;2.08;;;0.80;94.80;;;;;;4958595;28;20039;-91
2021/11/10 06:05:53;;;;;;;3.80;1.70;;;0.90;94.60;;;;;;4958028;28;20513;-91
2021/11/10 06:08:19;;;;;;;5.10;2.72;;;1.00;94.50;;;;;;4958756;28;20026;-92
2021/11/10 06:10:46;;;;;;;4.90;2.17;;;0.90;94.40;;;;;;4958478;28;20033;-93
2021/11/10 06:13:12;;;;;;;2.05;1.48;;;1.00;94.30;;;;;;4958045;28;20082;-92
2021/11/10 06:15:38;;;;;;;2.25;1.48;;;1.00;94.10;;;;;;4975740;28;20034;-92
2021/11/10 06:18:03;;;;;;;2.50;1.85;;;1.10;94.20;;;;;;4958194;28;20093;-92
2021/11/10 06:20:29;;;;;;;1.27;1.17;;;1.20;93.90;;;;;;4957857;28;20367;-93
2021/11/10 06:22:55;;;;;;;3.70;1.80;;;1.30;94.20;;;;;;4959771;28;20453;-92
2021/11/10 06:25:21;;;;;;;2.63;1.80;;;1.40;94.00;;;;;;4962527;28;20034;-91
2021/11/10 06:27:49;;;;;;;5.20;2.20;;;1.40;93.80;;;;;;4979051;28;20114;-91
2021/11/10 06:30:15;;;;;;;3.55;2.53;;;1.50;93.40;;;;;;4962686;28;20386;-91
2021/11/10 06:32:45;;;;;;;3.03;1.90;;;1.50;93.20;;;;;;4961335;28;20054;-90
2021/11/10 06:35:11;;;;;;;3.00;2.00;;;1.60;93.10;;;;;;4961685;28;20129;-91
2021/11/10 06:37:37;;;;;;;3.53;2.10;;;1.60;93.00;;;;;;4962316;28;20041;-91
2021/11/10 06:40:04;;;;;;;2.10;1.83;;;1.70;93.00;;;;;;4963910;28;20030;-92
2021/11/10 06:42:30;;;;;;;2.35;1.80;;;1.80;92.90;;;;;;4962152;28;20026;-91
2021/11/10 06:44:56;;;;;;;4.45;3.17;;;1.90;93.00;;;;;;4966171;28;20038;-90
2021/11/10 06:47:24;;;;;;;3.30;2.50;;;1.90;92.20;;;;;;4979225;28;20038;-91
2021/11/10 06:49:49;;;;;;;2.88;1.90;;;2.00;92.30;;;;;;4963492;28;20027;-91
2021/11/10 06:52:15;;;;;;;4.25;2.28;;;2.00;92.70;;;;;;4961978;28;20485;-91
2021/11/10 06:54:41;;;;;;;4.95;2.28;;;2.10;92.30;;;;;;4979678;28;20046;-91
2021/11/10 06:57:07;;;;;;;3.80;1.88;;;2.10;92.00;;;;;;4963433;28;20039;-91
2021/11/10 06:59:33;;;;;;;3.15;1.92;;;2.20;91.90;;;;;;4961847;28;20081;-92
2021/11/10 07:01:58;;;;;;;4.38;2.72;;;2.30;91.90;;;;;;4961896;28;20043;-92
2021/11/10 07:04:24;;;;;;;3.38;2.00;;;2.30;91.60;;;;;;4961707;28;20027;-92
2021/11/10 07:06:51;;;;;;;3.20;1.85;;;2.40;91.40;;;;;;4979192;28;20030;-92
2021/11/10 07:09:16;;;;;;;2.50;1.58;;;2.50;91.20;;;;;;4961071;28;20027;-91
2021/11/10 07:11:42;;;;;;;5.25;3.13;;;2.50;91.60;;;;;;4961438;28;20170;-91
2021/11/10 07:14:09;;;;;;;5.40;3.40;;;2.60;91.40;;;;;;4961083;28;20086;-90
2021/11/10 07:16:36;;;;;;;3.50;2.55;;;2.60;90.80;;;;;;4961771;28;20077;-92
2021/11/10 07:19:02;;;;;;;3.88;1.63;;;2.60;90.10;;;;;;4961002;28;20093;-91
2021/11/10 07:21:28;;;;;;;4.85;3.17;;;2.60;90.30;;;;;;4961521;28;20027;-91
2021/11/10 07:23:55;;;;;;;2.70;2.15;;;2.60;90.30;;;;;;4961476;28;20053;-90
2021/11/10 07:26:21;;;;;;;3.40;2.22;;;2.70;90.60;;;;;;4961044;28;20037;-91
2021/11/10 07:28:47;;;;;;;2.45;1.73;;;2.70;90.50;;;;;;4962860;28;20074;-91
2021/11/10 07:31:13;;;;;;;3.63;2.03;;;2.70;90.40;;;;;;4961083;28;20393;-92
2021/11/10 07:33:39;;;;;;;2.22;1.90;;;2.70;90.10;;;;;;4977554;28;20058;-91
2021/11/10 07:36:05;;;;;;;3.08;2.03;;;2.80;89.90;;;;;;4960374;28;20026;-93
2021/11/10 07:38:31;;;;;;;3.13;2.05;;;2.90;88.50;;;;;;4961029;28;20034;-94
2021/11/10 07:40:58;;;;;;;7.78;3.70;;;3.00;87.70;;;;;;4960970;28;20026;-93
2021/11/10 07:43:24;;;;;;;3.25;2.63;;;2.90;86.90;;;;;;4960807;28;20103;-93
2021/11/10 07:46:08;;;;;;;4.18;3.30;;;2.90;87.20;;;;;;4960774;28;20492;-93
2021/11/10 07:48:34;;;;;;;2.60;2.13;;;2.90;87.10;;;;;;4961532;28;20027;-93
2021/11/10 07:51:00;;;;;;;2.72;2.13;;;3.00;87.10;;;;;;4978768;28;20140;-93
2021/11/10 07:53:25;;;;;;;2.35;1.40;;;3.10;88.00;;;;;;4978050;28;20026;-93
2021/11/10 07:55:51;;;;;;;3.13;2.10;;;3.20;88.20;;;;;;4960942;28;20039;-93
2021/11/10 07:58:17;;;;;;;3.72;2.22;;;3.30;87.50;;;;;;4960791;28;20034;-93
2021/11/10 08:00:43;;;;;;;2.17;1.70;;;3.30;86.10;;;;;;4960979;28;20481;-92
2021/11/10 08:03:09;;;;;;;3.20;2.20;;;3.40;86.10;;;;;;4961195;28;20031;-94
2021/11/10 08:05:35;;;;;;;3.75;2.38;;;3.50;85.40;;;;;;4959365;28;20082;-91
2021/11/10 08:08:01;;;;;;;4.43;2.65;;;3.60;84.50;;;;;;4961433;28;20027;-92
2021/11/10 08:10:27;;;;;;;2.90;1.70;;;3.60;82.10;;;;;;4960202;28;20041;-93
2021/11/10 08:12:54;;;;;;;3.80;2.28;;;3.60;82.30;;;;;;4961663;28;20022;-93
2021/11/10 08:15:20;;;;;;;3.63;2.08;;;3.70;82.80;;;;;;4959289;28;20031;-93
2021/11/10 08:17:45;;;;;;;5.03;2.75;;;3.80;83.30;;;;;;4965399;28;20027;-96
2021/11/10 08:20:15;;;;;;;3.33;2.10;;;3.90;83.40;;;;;;4960431;28;20035;-94
2021/11/10 08:22:44;;;;;;;5.15;2.25;;;4.00;82.90;;;;;;4966287;28;20031;-96
2021/11/10 08:25:11;;;;;;;3.60;2.53;;;4.10;80.10;;;;;;4975447;28;20037;-95
2021/11/10 08:27:42;;;;;;;3.00;2.38;;;4.10;79.00;;;;;;4965876;28;20034;-95
2021/11/10 08:30:15;;;;;;;2.25;1.58;;;4.10;80.00;;;;;;4951746;28;20038;-95
2021/11/10 08:32:42;;;;;;;6.25;2.60;;;4.10;81.00;;;;;;4969731;28;20077;-95
2021/11/10 08:35:08;;;;;;;1.65;1.55;;;4.20;79.70;;;;;;4970970;28;20046;-94
2021/11/10 08:37:34;;;;;;;2.47;2.10;;;4.30;79.80;;;;;;4950346;29;20059;-95
2021/11/10 08:40:04;;;;;;;5.05;2.95;;;4.30;75.30;;;;;;4960843;28;20041;-96
2021/11/10 08:42:34;;;;;;;5.15;2.42;;;4.30;75.70;;;;;;4941037;28;20110;-96
2021/11/10 08:45:07;;;;;;;3.53;2.65;;;4.20;73.50;;;;;;4976359;28;20023;-95
2021/11/10 08:47:33;;;;;;;2.88;2.28;;;4.20;73.30;;;;;;4965430;28;20022;-94
2021/11/10 08:50:00;;;;;;;1.30;1.20;;;4.10;73.90;;;;;;4965570;28;20121;-94
2021/11/10 08:52:29;;;;;;;2.42;1.70;;;4.10;75.40;;;;;;4968221;28;20034;-96
2021/11/10 08:54:56;;;;;;;1.98;1.85;;;4.10;76.30;;;;;;4967960;28;20046;-96
2021/11/10 08:57:25;;;;;;;3.15;1.92;;;4.20;76.00;;;;;;4986732;28;20035;-96
2021/11/10 09:00:15;;;;;;;2.33;1.42;;;4.20;74.00;;;;;;4967245;28;20022;-95
2021/11/10 09:02:46;;;;;;;2.28;1.77;;;4.10;73.00;;;;;;4954314;28;20042;-95
2021/11/10 09:06:03;;;;;;;2.30;1.40;;;4.10;74.10;;;;;;4967147;28;20037;-95
2021/11/10 09:11:50;;;;;;;4.82;1.70;;;4.40;75.70;;;;;;4978805;28;20042;-93
2021/11/10 09:14:41;;;;;;;1.92;1.83;;;4.40;73.30;;;;;;4965325;28;20042;-95
2021/11/10 09:17:10;;;;;;;2.05;1.67;;;4.40;72.40;;;;;;4946942;28;20042;-94
2021/11/10 09:19:36;;;;;;;1.70;1.05;;;4.40;73.00;;;;;;4961711;28;20093;-93
2021/11/10 09:22:39;;;;;;;1.77;1.42;;;4.30;73.20;;;;;;4968184;28;20030;-95
2021/11/10 09:25:09;;;;;;;2.17;1.70;;;4.40;69.20;;;;;;4910269;29;20031;-96
2021/11/10 09:27:43;;;;;;;3.38;1.70;;;4.30;68.80;;;;;;4947657;29;20035;-94
2021/11/10 09:30:16;;;;;;;2.05;1.45;;;4.30;69.90;;;;;;4940660;29;20027;-93
2021/11/10 09:32:45;;;;;;;2.80;2.20;;;4.20;70.60;;;;;;4937542;29;20055;-94
2021/11/10 09:35:15;;;;;;;2.55;1.85;;;4.30;71.60;;;;;;4941979;29;20043;-95
2021/11/10 09:37:50;;;;;;;3.60;1.98;;;4.30;70.50;;;;;;4928415;29;20036;-95
2021/11/10 09:40:19;;;;;;;2.75;2.17;;;4.40;71.00;;;;;;4944991;29;20127;-95
2021/11/10 09:42:52;;;;;;;3.20;2.00;;;4.60;70.40;;;;;;4943489;29;20062;-94
2021/11/10 09:45:23;;;;;;;3.78;2.05;;;4.70;70.10;;;;;;4944451;29;20047;-93
2021/11/10 09:47:52;;;;;;;4.75;2.10;;;4.80;68.80;;;;;;4948250;29;20049;-94
2021/11/10 09:50:21;;;;;;;2.10;1.85;;;4.80;67.70;;;;;;4946169;29;20475;-95
2021/11/10 09:52:47;;;;;;;3.22;1.98;;;4.90;69.20;;;;;;4947640;29;20024;-94
2021/11/10 09:55:31;;;;;;;3.65;1.83;;;5.00;69.40;;;;;;4941910;29;20098;-93
2021/11/10 09:57:59;;;;;;;2.75;1.85;;;5.10;67.30;;;;;;4951367;29;20028;-95
2021/11/10 10:00:34;;;;;;;3.83;1.17;;;5.20;69.00;;;;;;4954571;29;20083;-96
2021/11/10 10:03:04;;;;;;;1.70;1.55;;;5.30;69.30;;;;;;4955001;29;20039;-94
2021/11/10 10:08:57;;;;;;;2.40;1.67;;;5.50;66.40;;;;;;4948757;29;20064;-94
2021/11/10 10:11:23;;;;;;;2.20;1.92;;;5.50;66.80;;;;;;4947981;29;20059;-93
2021/11/10 10:13:49;;;;;;;2.60;1.65;;;5.60;66.90;;;;;;4951755;29;20058;-94
2021/11/10 10:19:43;;;;;;;2.00;1.52;;;5.70;66.80;;;;;;4932276;29;20039;-94
2021/11/10 10:22:22;;;;;;;2.75;1.67;;;5.80;65.80;;;;;;4892390;29;20048;-95
2021/11/10 10:24:56;;;;;;;4.00;2.05;;;5.70;66.60;;;;;;4892695;29;20035;-93
2021/11/10 10:31:07;;;;;;;1.60;1.50;;;5.80;66.00;;;;;;4922726;29;20071;-94
2021/11/10 10:33:49;;;;;;;1.80;1.10;;;5.80;62.90;;;;;;4907659;29;20060;-94
2021/11/10 10:36:24;;;;;;;1.10;1.00;;;5.80;64.40;;;;;;4904787;29;20058;-95
2021/11/10 10:39:01;;;;;;;1.90;1.27;;;5.80;61.70;;;;;;4920883;29;20035;-95
2021/11/10 10:41:31;;;;;;;3.80;1.75;;;5.80;62.10;;;;;;4917225;29;20040;-95
2021/11/10 10:50:53;;;;;;;2.03;1.60;;;5.70;61.70;;;;;;4899901;29;21001;-93
2021/11/10 10:53:41;;;;;;;1.90;1.80;;;5.70;61.80;;;;;;4886540;29;20047;-94
2021/11/10 10:56:29;;;;;;;2.58;1.17;;;5.80;60.20;;;;;;4916666;29;20048;-94
2021/11/10 10:59:07;;;;;;;0.60;0.60;;;5.70;60.10;;;;;;4901709;29;20468;-93
2021/11/10 11:01:54;;;;;;;1.17;0.95;;;5.80;61.50;;;;;;4916897;29;20044;-94
2021/11/10 11:04:22;;;;;;;1.10;1.00;;;5.80;61.60;;;;;;4906045;29;20046;-95
2021/11/10 11:07:08;;;;;;;2.03;1.65;;;5.90;61.40;;;;;;4902997;29;20092;-95
2021/11/10 11:09:49;;;;;;;2.35;1.27;;;6.00;60.10;;;;;;4935191;29;20043;-95
2021/11/10 11:15:13;;;;;;;1.48;1.10;;;6.00;59.00;;;;;;4965574;28;20046;-92
2021/11/10 11:17:48;;;;;;;2.25;1.67;;;6.10;59.50;;;;;;4964006;28;20039;-94
2021/11/10 11:20:35;;;;;;;1.63;1.40;;;6.10;57.20;;;;;;4957393;29;20034;-94
2021/11/10 11:23:03;;;;;;;1.23;1.13;;;6.00;57.00;;;;;;4961249;28;20181;-93
2021/11/10 11:25:36;;;;;;;3.05;1.63;;;6.00;52.30;;;;;;4952536;28;20036;-94
2021/11/10 11:28:13;;;;;;;1.33;1.05;;;5.90;55.20;;;;;;4947788;28;20378;-93
2021/11/10 11:30:51;;;;;;;2.28;1.10;;;5.90;55.50;;;;;;4968523;28;20036;-93
2021/11/10 11:33:21;;;;;;;3.00;1.13;;;5.90;56.40;;;;;;4945097;28;20058;-92
2021/11/10 11:35:57;;;;;;;1.50;1.30;;;6.00;56.80;;;;;;4940307;29;20107;-93
2021/11/10 11:38:34;;;;;;;1.95;1.40;;;6.00;54.30;;;;;;4939385;29;20054;-93
2021/11/10 11:41:03;;;;;;;1.80;1.38;;;6.10;55.40;;;;;;4937438;29;20035;-92
2021/11/10 11:43:30;;;;;;;3.72;1.42;;;6.00;53.30;;;;;;4937330;29;20391;-93
2021/11/10 11:45:59;;;;;;;3.25;1.52;;;6.00;54.00;;;;;;4939250;29;20072;-91
2021/11/10 11:48:27;;;;;;;1.98;1.30;;;6.00;55.10;;;;;;4944801;29;20083;-93
2021/11/10 11:50:56;;;;;;;1.83;1.52;;;6.00;55.60;;;;;;4938216;29;20024;-94
2021/11/10 11:53:22;;;;;;;2.78;1.70;;;6.00;56.20;;;;;;4940820;29;20039;-94
2021/11/10 11:56:03;;;;;;;2.30;1.40;;;5.90;55.70;;;;;;4939951;29;20043;-94
2021/11/10 11:58:34;;;;;;;1.35;1.23;;;5.90;55.60;;;;;;4935213;29;20086;-92
2021/11/10 12:01:08;;;;;;;2.70;1.77;;;6.00;56.20;;;;;;4939184;29;20027;-95
2021/11/10 12:03:42;;;;;;;4.70;1.83;;;6.10;56.90;;;;;;4934174;29;20027;-92
2021/11/10 12:06:08;;;;;;;2.58;1.90;;;6.10;55.60;;;;;;4940041;29;20036;-93
2021/11/10 12:08:49;;;;;;;2.42;1.75;;;6.10;55.30;;;;;;4940634;29;20028;-92
2021/11/10 12:11:42;;;;;;;3.53;1.73;;;6.00;55.40;;;;;;4943299;29;20036;-94
2021/11/10 12:14:15;;;;;;;4.17;2.13;;;6.00;55.80;;;;;;4941480;29;20031;-93
2021/11/10 12:16:47;;;;;;;2.83;2.45;;;6.00;56.70;;;;;;4937032;29;20031;-93
2021/11/10 12:22:39;;;;;;;2.28;1.52;;;6.10;57.50;;;;;;4944718;29;20039;-93
2021/11/10 12:28:48;;;;;;;1.95;1.13;;;6.00;57.70;;;;;;4935655;29;20098;-95
2021/11/10 12:31:40;;;;;;;1.52;1.20;;;6.10;56.90;;;;;;4941916;29;20030;-93
2021/11/10 12:34:28;;;;;;;1.52;1.42;;;6.00;57.50;;;;;;4938746;29;20051;-94
2021/11/10 12:37:04;;;;;;;0.90;0.88;;;6.00;57.40;;;;;;4939243;29;20043;-94
2021/11/10 12:43:36;;;;;;;2.83;0.82;;;6.10;56.60;;;;;;4918988;29;20042;-93
2021/11/10 12:50:13;;;;;;;1.27;1.17;;;6.10;55.40;;;;;;4919770;29;20046;-95
2021/11/10 12:52:45;;;;;;;1.70;0.88;;;6.10;51.20;;;;;;4902825;29;20135;-94
2021/11/10 12:55:15;;;;;;;0.63;0.63;;;6.00;52.40;;;;;;4902083;29;20051;-93
2021/11/10 12:57:42;;;;;;;0.93;0.90;;;6.10;53.50;;;;;;4903145;29;20404;-93
2021/11/10 13:00:25;;;;;;;1.00;0.90;;;6.10;53.10;;;;;;4903267;29;20032;-92
2021/11/10 13:02:56;;;;;;;1.85;0.93;;;6.10;53.50;;;;;;4906607;29;20166;-95
2021/11/10 13:05:37;;;;;;;0.60;0.60;;;6.20;53.50;;;;;;4925409;29;20040;-94
2021/11/10 13:08:27;;;;;;;1.08;0.98;;;6.20;54.10;;;;;;4931258;29;20048;-93
2021/11/10 13:10:54;;;;;;;1.55;1.08;;;6.30;53.90;;;;;;4946939;29;20035;-93
2021/11/10 13:13:31;;;;;;;1.50;1.40;;;6.40;52.80;;;;;;4921310;29;20122;-94
2021/11/10 13:16:05;;;;;;;1.10;1.00;;;6.30;52.70;;;;;;4935122;29;20063;-94
2021/11/10 13:18:31;;;;;;;0.80;0.80;;;6.30;53.80;;;;;;4936532;29;20038;-92
2021/11/10 13:21:04;;;;;;;1.10;0.77;;;6.30;54.10;;;;;;4947735;29;20039;-94
2021/11/10 13:23:32;;;;;;;1.95;1.45;;;6.40;54.80;;;;;;4935848;29;20028;-93
2021/11/10 13:26:05;;;;;;;1.90;1.42;;;6.50;55.20;;;;;;4938031;29;20119;-91
2021/11/10 13:28:32;;;;;;;1.30;1.20;;;6.60;55.10;;;;;;4942078;29;20099;-92
2021/11/10 13:31:05;;;;;;;1.48;1.02;;;6.60;55.10;;;;;;4935279;29;20035;-93
2021/11/10 13:33:59;;;;;;;2.28;1.10;;;6.60;53.80;;;;;;4940214;29;20058;-93
2021/11/10 13:36:30;;;;;;;1.58;1.08;;;6.50;52.80;;;;;;4943777;29;20479;-94
2021/11/10 13:39:10;;;;;;;1.80;1.25;;;6.50;54.50;;;;;;4933752;29;20035;-93
2021/11/10 13:41:48;;;;;;;1.50;1.05;;;6.50;54.30;;;;;;4937186;29;20050;-94
2021/11/10 13:44:15;;;;;;;1.48;0.85;;;6.70;54.20;;;;;;4929818;29;20024;-92